createdAt,value
2019-02-16T00:01:24.164Z,14.87
2019-02-16T00:03:52.012Z,15.45
2019-02-16T00:06:19.836Z,15.55
2019-02-16T00:08:48.233Z,15.40
2019-02-16T00:11:16.735Z,14.50
2019-02-16T00:13:44.416Z,14.25
2019-02-16T00:16:12.162Z,17.67
2019-02-16T00:18:42.102Z,15.68
2019-02-16T00:21:10.846Z,14.28
2019-02-16T00:23:38.844Z,17.95
2019-02-16T00:26:06.555Z,14.70
2019-02-16T00:28:34.206Z,14.00
2019-02-16T00:31:02.152Z,16.48
2019-02-16T00:33:30.881Z,15.63
2019-02-16T00:35:58.594Z,13.80
2019-02-16T00:38:26.659Z,16.17
2019-02-16T00:40:54.363Z,15.40
2019-02-16T00:43:22.038Z,14.23
2019-02-16T00:45:49.718Z,18.42
2019-02-16T00:48:18.463Z,15.90
2019-02-16T00:50:46.366Z,15.75
2019-02-16T00:53:15.236Z,12.80
2019-02-16T00:55:42.877Z,16.03
2019-02-16T00:58:10.575Z,16.80
2019-02-16T01:00:38.397Z,15.45
2019-02-16T01:03:06.105Z,13.28
2019-02-16T01:05:33.771Z,17.70
2019-02-16T01:08:01.482Z,17.42
2019-02-16T01:10:33.553Z,22.60
2019-02-16T01:13:01.207Z,19.23
2019-02-16T01:15:29.083Z,19.70
2019-02-16T01:17:56.818Z,14.75
2019-02-16T01:20:24.563Z,16.57
2019-02-16T01:22:52.483Z,16.20
2019-02-16T01:25:20.169Z,14.87
2019-02-16T01:27:48.234Z,14.28
2019-02-16T01:30:16.002Z,15.75
2019-02-16T01:32:43.993Z,19.12
2019-02-16T01:35:11.837Z,16.62
2019-02-16T01:37:39.726Z,12.40
2019-02-16T01:40:11.707Z,15.85
2019-02-16T01:42:39.645Z,16.57
2019-02-16T01:45:09.356Z,20.70
2019-02-16T01:47:37.080Z,18.05
2019-02-16T01:50:05.113Z,16.95
2019-02-16T01:52:33.168Z,18.32
2019-02-16T01:55:01.020Z,20.48
2019-02-16T01:57:28.803Z,16.25
2019-02-16T01:59:56.822Z,17.55
2019-02-16T02:02:24.719Z,15.18
2019-02-16T02:04:52.354Z,14.47
2019-02-16T02:07:20.585Z,16.97
2019-02-16T02:09:48.579Z,15.18
2019-02-16T02:12:19.548Z,17.80
2019-02-16T02:15:02.314Z,13.70
2019-02-16T02:17:39.369Z,14.33
2019-02-16T02:20:07.997Z,13.38
2019-02-16T02:22:35.685Z,13.22
2019-02-16T02:25:03.587Z,14.80
2019-02-16T02:27:32.883Z,12.13
2019-02-16T02:30:00.547Z,12.20
2019-02-16T02:32:28.168Z,12.88
2019-02-16T02:34:55.971Z,12.80
2019-02-16T02:37:23.843Z,13.65
2019-02-16T02:39:51.639Z,17.00
2019-02-16T02:42:20.085Z,15.48
2019-02-16T02:44:47.786Z,11.97
2019-02-16T02:47:15.607Z,18.50
2019-02-16T02:49:44.979Z,14.25
2019-02-16T02:52:12.638Z,15.75
2019-02-16T02:54:40.409Z,14.40
2019-02-16T02:57:08.176Z,14.10
2019-02-16T02:59:36.055Z,16.60
2019-02-16T03:02:03.849Z,14.70
2019-02-16T03:04:31.893Z,13.72
2019-02-16T03:06:59.588Z,14.63
2019-02-16T03:09:27.315Z,15.63
2019-02-16T03:11:55.389Z,14.05
2019-02-16T03:14:23.083Z,18.42
2019-02-16T03:16:51.463Z,18.95
2019-02-16T03:19:19.342Z,15.48
2019-02-16T03:21:47.112Z,11.53
2019-02-16T03:24:14.835Z,12.30
2019-02-16T03:27:10.627Z,14.07
2019-02-16T03:30:25.487Z,16.48
2019-02-16T03:33:17.793Z,15.35
2019-02-16T03:36:38.668Z,15.53
2019-02-16T03:39:15.458Z,16.15
2019-02-16T03:41:43.174Z,13.35
2019-02-16T03:44:10.851Z,15.45
2019-02-16T03:46:38.701Z,14.25
2019-02-16T03:49:09.752Z,13.55
2019-02-16T03:51:37.419Z,11.78
2019-02-16T03:54:05.374Z,13.62
2019-02-16T03:56:33.213Z,12.55
2019-02-16T03:59:00.909Z,12.80
2019-02-16T04:01:29.057Z,19.25
2019-02-16T04:03:56.877Z,15.28
2019-02-16T04:06:24.860Z,16.37
2019-02-16T04:08:54.514Z,21.73
2019-02-16T04:11:22.160Z,17.95
2019-02-16T04:13:49.876Z,19.05
2019-02-16T04:16:18.045Z,17.35
2019-02-16T04:18:45.914Z,14.43
2019-02-16T04:21:13.741Z,15.28
2019-02-16T04:23:41.883Z,14.43
2019-02-16T04:26:09.818Z,12.75
2019-02-16T04:28:40.812Z,13.62
2019-02-16T04:31:08.703Z,12.65
2019-02-16T04:33:36.496Z,14.43
2019-02-16T04:36:04.277Z,11.53
2019-02-16T04:38:32.426Z,18.75
2019-02-16T04:41:00.456Z,15.63
2019-02-16T04:43:28.286Z,13.78
2019-02-16T04:45:56.506Z,14.78
2019-02-16T04:48:24.687Z,13.18
2019-02-16T04:50:52.369Z,11.57
2019-02-16T04:53:20.255Z,13.13
2019-02-16T04:55:48.071Z,11.08
2019-02-16T04:58:16.039Z,13.75
2019-02-16T05:00:43.920Z,12.07
2019-02-16T05:03:11.600Z,14.60
2019-02-16T05:05:39.238Z,12.98
2019-02-16T05:08:07.202Z,11.70
2019-02-16T05:10:34.997Z,15.63
2019-02-16T05:13:02.810Z,10.88
2019-02-16T05:15:30.830Z,14.03
2019-02-16T05:17:58.673Z,11.53
2019-02-16T05:20:26.367Z,11.57
2019-02-16T05:22:54.570Z,13.38
2019-02-16T05:25:22.405Z,12.88
2019-02-16T05:27:50.313Z,14.70
2019-02-16T05:30:22.898Z,13.38
2019-02-16T05:32:50.970Z,13.25
2019-02-16T05:35:18.866Z,11.93
2019-02-16T05:37:47.138Z,13.53
2019-02-16T05:40:14.895Z,12.07
2019-02-16T05:42:42.666Z,11.93
2019-02-16T05:45:10.884Z,15.00
2019-02-16T05:47:38.682Z,11.75
2019-02-16T05:50:06.557Z,16.70
2019-02-16T05:52:34.414Z,12.45
2019-02-16T05:55:02.451Z,14.68
2019-02-16T05:57:30.317Z,12.05
2019-02-16T05:59:58.287Z,11.57
2019-02-16T06:02:26.082Z,13.50
2019-02-16T06:04:53.823Z,15.83
2019-02-16T06:07:22.331Z,16.05
2019-02-16T06:09:50.182Z,15.05
2019-02-16T06:12:18.012Z,14.73
2019-02-16T06:14:48.681Z,16.15
2019-02-16T06:17:16.600Z,14.40
2019-02-16T06:19:44.375Z,19.17
2019-02-16T06:22:12.202Z,15.08
2019-02-16T06:24:39.911Z,14.68
2019-02-16T06:27:07.546Z,15.68
2019-02-16T06:29:35.450Z,12.43
2019-02-16T06:32:03.618Z,14.90
2019-02-16T06:34:34.281Z,17.20
2019-02-16T06:37:19.774Z,14.03
2019-02-16T06:39:49.152Z,15.32
2019-02-16T06:42:17.040Z,16.25
2019-02-16T06:44:44.835Z,14.83
2019-02-16T06:47:12.535Z,13.32
2019-02-16T06:49:40.809Z,16.02
2019-02-16T06:52:08.570Z,15.25
2019-02-16T06:54:36.211Z,17.73
2019-02-16T06:57:13.974Z,16.25
2019-02-16T06:59:44.800Z,17.15
2019-02-16T07:02:15.588Z,15.18
2019-02-16T07:04:43.709Z,18.00
2019-02-16T07:07:11.397Z,16.40
2019-02-16T07:09:41.332Z,50.52
2019-02-16T07:12:09.134Z,18.37
2019-02-16T07:14:38.392Z,16.77
2019-02-16T07:17:19.921Z,15.88
2019-02-16T07:19:52.984Z,14.58
2019-02-16T07:22:23.137Z,18.27
2019-02-16T07:24:50.870Z,20.68
2019-02-16T07:27:18.535Z,19.20
2019-02-16T07:29:46.332Z,19.12
2019-02-16T07:32:14.050Z,16.77
2019-02-16T07:34:41.732Z,14.90
2019-02-16T07:37:09.514Z,29.10
2019-02-16T07:39:37.151Z,15.83
2019-02-16T07:42:04.829Z,22.07
2019-02-16T07:44:52.201Z,18.40
2019-02-16T07:47:48.171Z,25.88
2019-02-16T07:50:24.697Z,21.85
2019-02-16T07:53:03.761Z,24.20
2019-02-16T07:55:44.721Z,18.67
2019-02-16T07:58:19.196Z,16.67
2019-02-16T08:01:06.375Z,20.00
2019-02-16T08:03:46.291Z,18.17
2019-02-16T08:06:38.991Z,16.93
2019-02-16T08:09:28.923Z,15.73
2019-02-16T08:12:07.165Z,23.20
2019-02-16T08:14:54.233Z,21.03
2019-02-16T08:17:45.963Z,15.83
2019-02-16T08:20:29.102Z,13.47
2019-02-16T08:23:13.097Z,12.90
2019-02-16T08:26:09.301Z,15.10
2019-02-16T08:29:02.322Z,14.17
2019-02-16T08:31:52.494Z,11.90
2019-02-16T08:34:55.499Z,15.50
2019-02-16T08:37:48.086Z,15.97
2019-02-16T08:40:32.465Z,14.87
2019-02-16T08:43:18.599Z,15.73
2019-02-16T08:46:11.710Z,14.53
2019-02-16T08:49:12.455Z,20.57
2019-02-16T08:51:58.234Z,20.83
2019-02-16T08:55:04.875Z,14.73
2019-02-16T08:58:00.749Z,13.57
2019-02-16T09:00:46.360Z,14.37
2019-02-16T09:03:39.745Z,11.07
2019-02-16T09:06:48.149Z,15.37
2019-02-16T09:09:32.128Z,17.50
2019-02-16T09:12:25.175Z,12.77
2019-02-16T09:15:04.022Z,13.60
2019-02-16T09:18:03.245Z,11.30
2019-02-16T09:20:47.536Z,13.47
2019-02-16T09:23:59.056Z,14.10
2019-02-16T09:26:51.748Z,13.67
2019-02-16T09:29:44.790Z,13.00
2019-02-16T09:32:30.682Z,22.50
2019-02-16T09:35:23.747Z,11.00
2019-02-16T09:38:01.561Z,12.30
2019-02-16T09:41:06.562Z,14.63
2019-02-16T09:44:03.642Z,15.70
2019-02-16T09:46:59.909Z,16.83
2019-02-16T09:49:41.302Z,13.30
2019-02-16T09:52:20.511Z,13.93
2019-02-16T09:54:55.662Z,15.10
2019-02-16T09:57:34.991Z,13.17
2019-02-16T10:00:10.770Z,19.53
2019-02-16T10:03:04.233Z,14.37
2019-02-16T10:05:51.849Z,17.07
2019-02-16T10:08:45.158Z,12.70
2019-02-16T10:11:31.265Z,14.33
2019-02-16T10:14:13.194Z,14.63
2019-02-16T10:17:00.784Z,20.40
2019-02-16T10:19:54.090Z,14.07
2019-02-16T10:22:30.216Z,13.20
2019-02-16T10:25:17.339Z,13.03
2019-02-16T10:28:14.102Z,16.63
2019-02-16T10:31:02.039Z,11.50
2019-02-16T10:33:49.621Z,11.17
2019-02-16T10:36:29.284Z,13.20
2019-02-16T10:39:25.986Z,12.27
2019-02-16T10:42:31.342Z,13.27
2019-02-16T10:45:18.989Z,14.20
2019-02-16T10:48:04.321Z,10.83
2019-02-16T10:50:46.974Z,11.87
2019-02-16T10:53:32.018Z,11.10
2019-02-16T10:56:12.244Z,12.57
2019-02-16T10:59:04.921Z,11.40
2019-02-16T11:01:50.513Z,10.83
2019-02-16T11:04:38.486Z,12.10
2019-02-16T11:07:19.484Z,12.98
2019-02-16T11:10:07.153Z,12.80
2019-02-16T11:13:01.111Z,12.57
2019-02-16T11:16:05.088Z,14.40
2019-02-16T11:18:55.066Z,12.77
2019-02-16T11:21:42.521Z,12.50
2019-02-16T11:24:16.403Z,12.87
2019-02-16T11:26:59.467Z,15.37
2019-02-16T11:29:49.053Z,13.50
2019-02-16T11:32:54.235Z,11.03
2019-02-16T11:35:40.388Z,12.47
2019-02-16T11:38:36.382Z,13.87
2019-02-16T11:41:24.438Z,14.67
2019-02-16T11:44:18.016Z,10.77
2019-02-16T11:47:09.457Z,13.70
2019-02-16T11:50:10.633Z,17.97
2019-02-16T11:53:00.459Z,11.83
2019-02-16T11:55:53.434Z,14.87
2019-02-16T11:58:39.489Z,11.20
2019-02-16T12:01:45.077Z,13.20
2019-02-16T12:04:33.141Z,14.83
2019-02-16T12:07:07.379Z,11.77
2019-02-16T12:09:59.171Z,13.37
2019-02-16T12:12:39.283Z,14.93
2019-02-16T12:15:19.334Z,14.53
2019-02-16T12:18:14.170Z,16.33
2019-02-16T12:21:01.331Z,15.17
2019-02-16T12:23:57.095Z,15.30
2019-02-16T12:26:59.074Z,15.27
2019-02-16T12:29:37.937Z,15.37
2019-02-16T12:32:21.368Z,13.37
2019-02-16T12:35:06.720Z,12.30
2019-02-16T12:37:49.632Z,14.53
2019-02-16T12:40:33.224Z,14.07
2019-02-16T12:43:18.654Z,13.50
2019-02-16T12:46:23.885Z,15.47
2019-02-16T12:49:12.367Z,11.40
2019-02-16T12:51:59.597Z,13.63
2019-02-16T12:55:01.313Z,12.30
2019-02-16T12:57:33.526Z,11.43
2019-02-16T13:00:19.408Z,11.93
2019-02-16T13:03:09.480Z,15.93
2019-02-16T13:06:11.419Z,15.13
2019-02-16T13:08:53.499Z,12.50
2019-02-16T13:11:29.662Z,14.50
2019-02-16T13:14:19.331Z,14.63
2019-02-16T13:17:02.685Z,14.17
2019-02-16T13:19:37.998Z,14.40
2019-02-16T13:22:11.218Z,14.67
2019-02-16T13:25:24.099Z,15.80
2019-02-16T13:28:09.174Z,14.33
2019-02-16T13:30:52.120Z,14.03
2019-02-16T13:33:30.650Z,13.93
2019-02-16T13:36:22.377Z,14.77
2019-02-16T13:39:12.623Z,14.97
2019-02-16T13:41:59.726Z,15.83
2019-02-16T13:44:46.970Z,16.47
2019-02-16T13:47:24.912Z,16.63
2019-02-16T13:50:24.175Z,14.77
2019-02-16T13:53:17.205Z,14.07
2019-02-16T13:56:13.888Z,16.73
2019-02-16T13:58:55.433Z,13.70
2019-02-16T14:01:42.983Z,16.32
2019-02-16T14:04:35.013Z,14.07
2019-02-16T14:07:20.338Z,12.80
2019-02-16T14:10:28.114Z,14.63
2019-02-16T14:13:02.855Z,17.03
2019-02-16T14:15:40.941Z,14.57
2019-02-16T14:18:08.899Z,13.87
2019-02-16T14:20:38.562Z,13.47
2019-02-16T14:23:06.481Z,13.70
2019-02-16T14:25:43.001Z,13.10
2019-02-16T14:28:11.224Z,13.03
2019-02-16T14:30:39.092Z,16.17
2019-02-16T14:33:10.436Z,12.67
2019-02-16T14:35:38.085Z,14.50
2019-02-16T14:38:25.523Z,16.07
2019-02-16T14:40:56.262Z,15.33
2019-02-16T14:43:26.715Z,11.80
2019-02-16T14:45:54.586Z,16.40
2019-02-16T14:48:23.357Z,14.03
2019-02-16T14:50:51.634Z,15.47
2019-02-16T14:53:22.612Z,12.90
2019-02-16T14:55:55.049Z,15.40
2019-02-16T14:58:23.122Z,17.10
2019-02-16T15:00:50.963Z,15.67
2019-02-16T15:03:25.854Z,15.77
2019-02-16T15:05:55.841Z,15.40
2019-02-16T15:08:23.718Z,12.90
2019-02-16T15:10:52.493Z,15.43
2019-02-16T15:13:23.429Z,12.73
2019-02-16T15:15:51.094Z,14.57
2019-02-16T15:18:21.254Z,13.03
2019-02-16T15:20:49.734Z,15.53
2019-02-16T15:23:17.497Z,13.97
2019-02-16T15:25:45.552Z,16.17
2019-02-16T15:28:13.638Z,14.10
2019-02-16T15:30:41.400Z,13.70
2019-02-16T15:33:12.281Z,13.57
2019-02-16T15:35:40.123Z,15.27
2019-02-16T15:38:08.027Z,13.90
2019-02-16T15:40:36.087Z,14.77
2019-02-16T15:43:05.134Z,19.87
2019-02-16T15:45:32.793Z,14.37
2019-02-16T15:48:00.542Z,16.33
2019-02-16T15:50:31.235Z,16.27
2019-02-16T15:52:59.168Z,14.73
2019-02-16T15:55:30.372Z,19.10
2019-02-16T15:57:58.226Z,16.53
2019-02-16T16:00:27.185Z,17.60
2019-02-16T16:02:55.416Z,18.43
2019-02-16T16:05:26.086Z,14.30
2019-02-16T16:08:19.311Z,17.37
2019-02-16T16:11:12.642Z,14.67
2019-02-16T16:14:09.191Z,15.47
2019-02-16T16:16:56.446Z,16.57
2019-02-16T16:19:34.377Z,15.70
2019-02-16T16:22:12.860Z,15.93
2019-02-16T16:25:00.289Z,15.70
2019-02-16T16:27:51.499Z,18.77
2019-02-16T16:30:39.260Z,14.03
2019-02-16T16:33:45.319Z,14.80
2019-02-16T16:36:32.750Z,14.67
2019-02-16T16:39:28.760Z,13.37
2019-02-16T16:42:07.029Z,16.57
2019-02-16T16:44:44.347Z,13.00
2019-02-16T16:47:33.136Z,13.73
2019-02-16T16:50:38.289Z,14.30
2019-02-16T16:53:17.419Z,17.70
2019-02-16T16:56:04.587Z,13.30
2019-02-16T16:59:09.780Z,13.33
2019-02-16T17:01:49.198Z,13.83
2019-02-16T17:04:25.275Z,12.70
2019-02-16T17:07:10.614Z,12.50
2019-02-16T17:10:12.152Z,19.60
2019-02-16T17:13:02.109Z,14.70
2019-02-16T17:15:54.145Z,17.30
2019-02-16T17:18:44.767Z,15.47
2019-02-16T17:21:53.505Z,13.93
2019-02-16T17:24:30.284Z,15.90
2019-02-16T17:27:11.794Z,14.23
2019-02-16T17:29:59.218Z,15.33
2019-02-16T17:32:45.430Z,13.93
2019-02-16T17:35:38.423Z,18.00
2019-02-16T17:38:21.931Z,15.50
2019-02-16T17:41:19.565Z,20.50
2019-02-16T17:44:15.262Z,19.50
2019-02-16T17:47:05.019Z,16.93
2019-02-16T17:49:51.893Z,20.90
2019-02-16T17:52:39.253Z,21.77
2019-02-16T17:55:30.103Z,36.00
2019-02-16T17:58:11.301Z,22.93
2019-02-16T18:01:03.523Z,21.67
2019-02-16T18:03:53.464Z,26.43
2019-02-16T18:06:52.640Z,18.70
2019-02-16T18:09:38.054Z,17.00
2019-02-16T18:12:24.098Z,18.43
2019-02-16T18:15:02.013Z,17.40
2019-02-16T18:17:52.653Z,19.60
2019-02-16T18:20:45.633Z,17.33
2019-02-16T18:23:39.891Z,22.57
2019-02-16T18:26:24.293Z,14.90
2019-02-16T18:29:14.603Z,25.83
2019-02-16T18:32:01.848Z,23.33
2019-02-16T18:35:10.179Z,16.97
2019-02-16T18:37:48.776Z,18.00
2019-02-16T18:40:28.694Z,14.60
2019-02-16T18:43:18.564Z,18.13
2019-02-16T18:46:04.398Z,15.27
2019-02-16T18:49:07.414Z,19.53
2019-02-16T18:51:56.987Z,16.23
2019-02-16T18:54:49.731Z,19.07
2019-02-16T18:57:40.587Z,19.80
2019-02-16T19:00:34.041Z,21.13
2019-02-16T19:03:20.801Z,17.00
2019-02-16T19:06:10.501Z,21.00
2019-02-16T19:09:12.689Z,23.33
2019-02-16T19:11:54.322Z,20.87
2019-02-16T19:14:41.693Z,22.73
2019-02-16T19:17:40.316Z,24.23
2019-02-16T19:20:28.709Z,20.13
2019-02-16T19:23:34.181Z,18.63
2019-02-16T19:26:24.402Z,20.67
2019-02-16T19:28:59.054Z,25.13
2019-02-16T19:31:43.614Z,21.57
2019-02-16T19:34:44.607Z,26.23
2019-02-16T19:37:25.079Z,19.50
2019-02-16T19:40:18.298Z,21.50
2019-02-16T19:42:54.187Z,23.33
2019-02-16T19:45:44.211Z,23.73
2019-02-16T19:48:32.076Z,23.17
2019-02-16T19:51:21.762Z,23.13
2019-02-16T19:54:14.746Z,19.30
2019-02-16T19:57:07.509Z,20.97
2019-02-16T19:59:56.266Z,22.87
2019-02-16T20:02:36.207Z,20.80
2019-02-16T20:05:27.221Z,21.27
2019-02-16T20:08:02.194Z,26.83
2019-02-16T20:10:58.537Z,21.63
2019-02-16T20:13:54.200Z,26.70
2019-02-16T20:16:42.146Z,22.60
2019-02-16T20:19:30.138Z,21.03
2019-02-16T20:22:20.699Z,23.57
2019-02-16T20:25:19.425Z,21.77
2019-02-16T20:27:57.302Z,29.50
2019-02-16T20:30:37.645Z,23.63
2019-02-16T20:33:14.509Z,27.67
2019-02-16T20:39:45.859Z,28.60
2019-02-16T20:42:20.141Z,25.40
2019-02-16T20:45:06.302Z,28.70
2019-02-16T20:47:52.190Z,24.97
2019-02-16T20:50:34.640Z,34.50
2019-02-16T20:53:27.722Z,49.33
2019-02-16T20:56:19.908Z,64.60
2019-02-16T20:59:06.037Z,67.73
2019-02-16T21:02:03.209Z,36.43
2019-02-16T21:04:59.479Z,29.87
2019-02-16T21:07:41.699Z,33.23
2019-02-16T21:10:27.530Z,27.67
2019-02-16T21:13:13.643Z,26.43
2019-02-16T21:15:51.514Z,30.23
2019-02-16T21:18:37.333Z,29.77
2019-02-16T21:21:17.465Z,24.80
2019-02-16T21:24:04.616Z,34.63
2019-02-16T21:26:57.636Z,31.43
2019-02-16T21:29:40.752Z,37.53
2019-02-16T21:32:30.257Z,33.80
2019-02-16T21:35:26.809Z,28.60
2019-02-16T21:38:18.915Z,29.37
2019-02-16T21:41:12.634Z,40.27
2019-02-16T21:44:07.640Z,29.53
2019-02-16T21:46:55.055Z,28.10
2019-02-16T21:49:48.048Z,28.63
2019-02-16T21:52:47.137Z,27.63
2019-02-16T21:55:32.867Z,28.27
2019-02-16T21:58:34.938Z,25.67
2019-02-16T22:01:28.771Z,32.70
2019-02-16T22:04:09.284Z,27.33
2019-02-16T22:07:02.331Z,30.47
2019-02-16T22:09:48.070Z,24.80
2019-02-16T22:12:29.189Z,25.93
2019-02-16T22:15:18.424Z,26.43
2019-02-16T22:18:41.568Z,31.53
2019-02-16T22:28:31.019Z,35.93
2019-02-16T22:38:05.778Z,28.60
2019-02-16T22:40:53.319Z,27.37
2019-02-16T22:44:32.426Z,27.40
2019-02-16T22:46:52.520Z,28.00
2019-02-16T22:58:58.944Z,24.67
2019-02-16T23:01:27.686Z,22.27
2019-02-16T23:04:17.274Z,27.40
2019-02-16T23:13:52.550Z,27.67
2019-02-16T23:16:24.993Z,26.37
2019-02-16T23:19:12.035Z,28.57
2019-02-16T23:27:42.237Z,24.90
2019-02-16T23:36:53.058Z,25.20
2019-02-16T23:39:40.313Z,25.67
2019-02-16T23:46:32.120Z,25.90
2019-02-16T23:56:31.643Z,31.27
